AirNav   Everest Fuels
 
 333 users online  

WI76 J Rock Airport
Fort Atkinson, Wisconsin, USA

GOING TO FORT ATKINSON?


FAA INFORMATION EFFECTIVE 18 JUNE 2020

Location

FAA Identifier: WI76
Lat/Long: 42-56-55.0200N 088-46-33.3770W
42-56.917000N 088-46.556283W
42.9486167,-88.7759381
(estimated)
Elevation: 836 ft. / 255 m (estimated)
Variation: 00W (1985)
From city: 3 miles NE of FORT ATKINSON, WI
Time zone: UTC -5 (UTC -6 during Standard Time)
Zip code: 53549

Airport Operations

Airport use: Private use. Permission required prior to landing
Activation date: 05/1970
Control tower: no
ARTCC: CHICAGO CENTER
FSS: GREEN BAY FLIGHT SERVICE STATION
Attendance: UNATNDD
Wind indicator: yes
Segmented circle: no

Airport Communications

WX AWOS-3 at RYV (13 nm N): 119.975 (920-261-0734)
WX AWOS-3PT at 57C (20 nm SE): 118.125 (262-642-1845)

Nearby radio navigation aids

VOR radial/distance  VOR name  Freq  Var
BAEr243/23.8BADGER VOR/DME116.4002E
MSNr112/27.4MADISON VORTAC108.6003E
JVLr029/27.6JANESVILLE VOR/DME114.3003E

 
NDB name  Hdg/Dist  Freq  Var  ID
ROCK RIVER190/13.737101WRYV .-. -.-- ...-
LAKE LAWN334/17.040402WLVV .-.. ...- ...-
JUNEAU187/29.034401WUNU ..- -. ..-

Airport Services

Airframe service: NONE
Powerplant service: NONE

Runway Information

Runway 17/35

Dimensions: 1700 x 50 ft. / 518 x 15 m
Surface: turf
RUNWAY 17  RUNWAY 35
Traffic pattern: leftleft

Airport Ownership and Management from official FAA records

Ownership: Privately-owned
Owner: JONATHAN LIGHTNER
N2926 WILL RD
JEFFERSON, WI 53549
Phone (608) 695-8917
Manager: JONATHAN LIGHTNER
N2926 WILL RD
JEFFERSON, WI 53549
Phone (608) 846-6386

Airport Operational Statistics

Aircraft based on the field: 1
Single engine airplanes: 1
    

Additional Remarks

FOR CD CTC CHICAGO ARTCC AT 630-906-8921.

Instrument Procedures

There are no published instrument procedures at WI76.

Some nearby airports with instrument procedures:

61C - Fort Atkinson Municipal Airport (2 nm NW)
KRYV - Watertown Municipal Airport (13 nm N)
57C - East Troy Municipal Airport (20 nm SE)
87Y - Blackhawk Airfield (20 nm NW)
KJVL - Southern Wisconsin Regional Airport (23 nm SW)
 
Loc | Ops | Rwys | IFR | FBO | Links
Com | Nav | Svcs | Stats | Notes
Area around WI76 (J Rock Airport)
 
Road maps at: MapQuest Bing Google
 
Aerial photo
No photo
 
Sectional chart

 
Airport distance calculator
Flying to J Rock Airport? Find the distance to fly.

From to WI76

Sunrise and sunset
Times for 14-Jul-2020
 Local
(UTC-5)
 Zulu
(UTC)
Morning civil twilight04:5709:57
Sunrise05:3110:31
Sunset20:3101:31
Evening civil twilight21:0502:05

Current date and time
Zulu (UTC)  14-Jul-2020 10:18:49
Local (UTC-5)  14-Jul-2020 05:18:49
 
METAR
KRYV 
13nm N 
140955Z AUTO 14005KT 10SM CLR 17/17 A2999 RMK AO2 T01700170
K57C 
20nm SE 
140955Z AUTO 00000KT 10SM CLR 16/16 A3003 RMK AO2 T01630157
KJVL 
23nm SW 
140955Z AUTO 15005KT 10SM CLR 18/17 A3000 RMK AO2
KBUU 
26nm SE 
140955Z AUTO 00000KT 10SM 15/15 A3003 RMK AO2 T01490148 PWINO
TAF
KJVL 
23nm SW 
140450Z 1406/1506 16006KT P6SM FEW250 FM141400 18010G18KT P6SM SCT250 FM150000 18009KT P6SM BKN200
KMSN 
28nm NW 
140450Z 1406/1506 17006KT P6SM FEW250 FM141400 19012G18KT P6SM SCT250 FM142300 19013KT P6SM BKN200 FM150200 19008KT P6SM -SHRA VCTS BKN050CB
NOTAMs
Click for the latest NOTAMs
NOTAMs are issued by the DoD/FAA and will open in a separate window not controlled by AirNav.

 

 
 

Would you like to see your business listed on this page?

 If your business provides an interesting product or service to pilots, flight crews, aircraft, or users of the J Rock Airport, you should consider listing it here.  To start the listing process, click on the button below
 
Add a business
 

Other Pages about J Rock Airport

Update a link
 
Copyright © AirNav, LLC. All rights reserved. Privacy Policy  Contact